createdAt,value
2019-02-25T00:02:27.629Z,68.29
2019-02-25T00:04:58.245Z,68.17
2019-02-25T00:07:28.957Z,68.31
2019-02-25T00:10:04.095Z,68.03
2019-02-25T00:12:34.467Z,68.26
2019-02-25T00:15:05.579Z,68.25
2019-02-25T00:17:37.131Z,68.08
2019-02-25T00:20:10.272Z,68.15
2019-02-25T00:22:41.747Z,68.09
2019-02-25T00:25:12.736Z,68.09
2019-02-25T00:27:47.465Z,68.16
2019-02-25T00:30:19.585Z,68.17
2019-02-25T00:32:56.315Z,68.14
2019-02-25T00:35:28.260Z,67.84
2019-02-25T00:37:59.911Z,67.92
2019-02-25T00:40:32.638Z,67.77
2019-02-25T00:43:01.751Z,67.74
2019-02-25T00:45:31.901Z,67.60
2019-02-25T00:48:08.136Z,67.54
2019-02-25T00:50:43.879Z,67.38
2019-02-25T00:53:21.704Z,67.25
2019-02-25T00:55:50.893Z,67.22
2019-02-25T00:58:22.659Z,67.31
2019-02-25T01:00:53.278Z,67.19
2019-02-25T01:03:25.373Z,67.35
2019-02-25T01:06:03.457Z,66.95
2019-02-25T01:08:42.234Z,67.10
2019-02-25T01:11:17.090Z,66.62
2019-02-25T01:13:47.322Z,66.35
2019-02-25T01:16:19.561Z,66.19
2019-02-25T01:18:53.105Z,66.06
2019-02-25T01:21:22.604Z,65.72
2019-02-25T01:23:52.951Z,65.74
2019-02-25T01:26:29.283Z,65.65
2019-02-25T01:29:00.153Z,65.65
2019-02-25T01:31:34.238Z,65.84
2019-02-25T01:34:06.726Z,65.76
2019-02-25T01:36:43.713Z,65.85
2019-02-25T01:39:15.701Z,65.78
2019-02-25T01:42:07.329Z,65.68
2019-02-25T01:44:40.926Z,65.64
2019-02-25T01:47:12.487Z,65.60
2019-02-25T01:52:29.854Z,65.27
2019-02-25T01:55:00.786Z,65.07
2019-02-25T01:57:31.484Z,65.06
2019-02-25T02:00:01.892Z,64.82
2019-02-25T02:02:38.180Z,64.84
2019-02-25T02:05:12.155Z,64.55
2019-02-25T02:07:44.147Z,64.41
2019-02-25T02:10:14.463Z,64.44
2019-02-25T02:12:51.634Z,63.88
2019-02-25T02:15:21.057Z,63.73
2019-02-25T02:17:54.939Z,63.25
2019-02-25T02:20:30.114Z,62.87
2019-02-25T02:23:03.496Z,62.91
2019-02-25T02:25:41.424Z,62.55
2019-02-25T02:28:14.861Z,62.54
2019-02-25T02:30:46.147Z,62.51
2019-02-25T02:33:19.582Z,62.42
2019-02-25T02:35:54.336Z,62.22
2019-02-25T02:38:27.669Z,62.19
2019-02-25T02:41:01.135Z,62.13
2019-02-25T02:43:31.233Z,62.03
2019-02-25T02:46:11.021Z,61.96
2019-02-25T02:48:44.830Z,61.89
2019-02-25T02:51:14.590Z,62.36
2019-02-25T02:53:45.907Z,62.12
2019-02-25T02:56:16.666Z,62.05
2019-02-25T02:58:46.425Z,62.15
2019-02-25T03:01:18.059Z,62.07
2019-02-25T03:03:49.740Z,62.17
2019-02-25T03:06:21.194Z,62.22
2019-02-25T03:08:55.337Z,61.89
2019-02-25T03:14:13.790Z,61.21
2019-02-25T03:16:47.994Z,60.67
2019-02-25T03:21:55.058Z,60.50
2019-02-25T03:24:26.478Z,60.51
2019-02-25T03:26:59.954Z,60.29
2019-02-25T03:29:33.394Z,60.47
2019-02-25T03:32:04.045Z,60.63
2019-02-25T03:34:34.958Z,60.54
2019-02-25T03:37:05.911Z,60.22
2019-02-25T03:42:16.811Z,60.17
2019-02-25T03:44:46.581Z,60.30
2019-02-25T03:47:16.244Z,60.54
2019-02-25T03:49:50.633Z,60.44
2019-02-25T03:54:59.799Z,60.74
2019-02-25T03:57:32.232Z,60.65
2019-02-25T04:00:05.039Z,60.57
2019-02-25T04:02:36.415Z,60.59
2019-02-25T04:05:11.385Z,60.69
2019-02-25T04:07:41.513Z,60.92
2019-02-25T04:10:15.049Z,61.10
2019-02-25T04:12:48.515Z,60.96
2019-02-25T04:15:22.558Z,61.47
2019-02-25T04:18:02.334Z,61.35
2019-02-25T04:20:32.786Z,60.96
2019-02-25T04:23:04.099Z,60.97
2019-02-25T04:25:37.916Z,61.33
2019-02-25T04:28:10.601Z,61.29
2019-02-25T04:30:41.500Z,61.14
2019-02-25T04:33:16.326Z,61.29
2019-02-25T04:35:56.047Z,61.15
2019-02-25T04:38:27.604Z,61.44
2019-02-25T04:40:58.565Z,61.18
2019-02-25T04:43:29.427Z,61.51
2019-02-25T04:46:02.487Z,61.45
2019-02-25T04:48:33.279Z,61.58
2019-02-25T04:51:06.548Z,62.09
2019-02-25T04:53:37.291Z,61.88
2019-02-25T04:56:14.692Z,61.75
2019-02-25T04:58:47.373Z,62.05
2019-02-25T05:01:18.387Z,62.02
2019-02-25T05:03:48.085Z,62.13
2019-02-25T05:06:21.461Z,62.09
2019-02-25T05:08:51.486Z,61.98
2019-02-25T05:11:32.779Z,62.40
2019-02-25T05:14:03.118Z,62.49
2019-02-25T05:16:33.361Z,62.70
2019-02-25T05:19:07.624Z,62.96
2019-02-25T05:21:37.083Z,63.01
2019-02-25T05:24:10.316Z,63.04
2019-02-25T05:26:39.886Z,63.12
2019-02-25T05:29:17.115Z,63.24
2019-02-25T05:31:49.323Z,63.58
2019-02-25T05:34:18.975Z,63.18
2019-02-25T05:39:28.068Z,63.41
2019-02-25T05:42:07.323Z,63.39
2019-02-25T05:44:40.504Z,63.25
2019-02-25T05:47:14.463Z,63.33
2019-02-25T05:49:45.547Z,63.18
2019-02-25T05:52:22.887Z,62.84
2019-02-25T05:54:59.177Z,62.48
2019-02-25T05:57:34.123Z,62.30
2019-02-25T06:00:05.454Z,62.23
2019-02-25T06:02:36.732Z,62.37
2019-02-25T06:05:12.122Z,62.16
2019-02-25T06:07:45.647Z,62.21
2019-02-25T06:10:16.097Z,62.08
2019-02-25T06:12:47.476Z,62.15
2019-02-25T06:15:22.568Z,61.72
2019-02-25T06:17:56.838Z,61.52
2019-02-25T06:23:10.911Z,61.44
2019-02-25T06:25:41.211Z,61.59
2019-02-25T06:28:20.252Z,61.70
2019-02-25T06:30:49.741Z,61.57
2019-02-25T06:33:18.960Z,61.40
2019-02-25T06:35:54.092Z,61.57
2019-02-25T06:40:59.198Z,61.70
2019-02-25T06:43:30.084Z,62.01
2019-02-25T06:46:00.266Z,61.96
2019-02-25T06:48:31.125Z,62.01
2019-02-25T06:51:03.059Z,62.06
2019-02-25T06:53:35.474Z,62.08
2019-02-25T06:56:08.203Z,62.05
2019-02-25T06:58:46.517Z,61.91
2019-02-25T07:01:23.305Z,62.00
2019-02-25T07:04:13.853Z,62.08
2019-02-25T07:07:04.392Z,62.02
2019-02-25T07:09:38.971Z,61.75
2019-02-25T07:12:16.524Z,61.82
2019-02-25T07:14:57.019Z,61.60
2019-02-25T07:17:31.681Z,61.37
2019-02-25T07:20:42.695Z,61.36
2019-02-25T07:23:19.494Z,61.54
2019-02-25T07:26:06.382Z,61.34
2019-02-25T07:29:10.510Z,61.43
2019-02-25T07:31:51.390Z,61.24
2019-02-25T07:34:31.114Z,61.42
2019-02-25T07:37:06.517Z,61.24
2019-02-25T07:39:57.340Z,61.33
2019-02-25T07:42:37.337Z,61.19
2019-02-25T07:46:18.271Z,61.21
2019-02-25T07:49:04.589Z,61.09
2019-02-25T07:51:41.796Z,61.05
2019-02-25T07:57:04.966Z,60.83
2019-02-25T08:02:41.764Z,59.64
2019-02-25T08:05:31.540Z,59.01
2019-02-25T08:08:20.003Z,58.70
2019-02-25T08:10:58.676Z,58.47
2019-02-25T08:13:39.792Z,58.73
2019-02-25T08:16:24.681Z,58.60
2019-02-25T08:18:59.556Z,58.87
2019-02-25T08:21:38.711Z,58.57
2019-02-25T08:27:17.094Z,58.78
2019-02-25T08:30:00.487Z,59.16
2019-02-25T08:32:35.974Z,59.13
2019-02-25T08:35:11.972Z,58.83
2019-02-25T08:38:28.402Z,59.07
2019-02-25T08:41:09.926Z,59.36
2019-02-25T08:44:57.587Z,59.25
2019-02-25T08:47:36.309Z,59.21
2019-02-25T08:50:10.115Z,59.32
2019-02-25T08:52:46.049Z,59.44
2019-02-25T08:55:23.594Z,59.51
2019-02-25T09:00:41.115Z,59.77
2019-02-25T09:06:30.085Z,59.90
2019-02-25T09:12:14.499Z,60.00
2019-02-25T09:14:43.567Z,59.95
2019-02-25T09:17:12.934Z,60.19
2019-02-25T09:19:43.507Z,59.91
2019-02-25T09:22:18.665Z,60.05
2019-02-25T09:24:48.328Z,59.91
2019-02-25T09:27:19.245Z,59.97
2019-02-25T09:29:48.792Z,59.99
2019-02-25T09:32:24.183Z,59.74
2019-02-25T09:34:53.628Z,59.83
2019-02-25T09:37:22.971Z,59.83
2019-02-25T09:39:53.003Z,60.00
2019-02-25T09:42:24.630Z,59.97
2019-02-25T09:44:54.757Z,59.99
2019-02-25T09:47:25.838Z,59.94
2019-02-25T09:49:55.428Z,59.94
2019-02-25T09:52:24.418Z,59.96
2019-02-25T09:54:56.145Z,60.00
2019-02-25T09:57:25.322Z,59.93
2019-02-25T09:59:55.537Z,60.02
2019-02-25T10:02:31.713Z,59.96
2019-02-25T10:05:03.723Z,59.59
2019-02-25T10:07:33.196Z,60.03
2019-02-25T10:10:04.362Z,59.91
2019-02-25T10:12:48.212Z,59.76
2019-02-25T10:15:18.538Z,59.88
2019-02-25T10:17:48.757Z,59.96
2019-02-25T10:20:18.559Z,59.98
2019-02-25T10:22:48.164Z,59.96
2019-02-25T10:25:20.006Z,60.08
2019-02-25T10:27:51.631Z,60.19
2019-02-25T10:30:26.390Z,60.40
2019-02-25T10:32:56.473Z,60.07
2019-02-25T10:35:28.247Z,60.19
2019-02-25T10:38:03.229Z,60.11
2019-02-25T10:40:35.755Z,60.15
2019-02-25T10:43:10.487Z,60.25
2019-02-25T10:45:43.377Z,60.16
2019-02-25T10:48:15.195Z,59.93
2019-02-25T10:53:53.947Z,59.54
2019-02-25T10:56:32.764Z,59.46
2019-02-25T10:59:05.701Z,59.59
2019-02-25T11:01:39.138Z,59.30
2019-02-25T11:04:06.652Z,59.58
2019-02-25T11:06:37.968Z,59.84
2019-02-25T11:09:18.109Z,59.53
2019-02-25T11:11:50.517Z,59.45
2019-02-25T11:14:23.106Z,59.23
2019-02-25T11:16:56.207Z,59.25
2019-02-25T11:19:28.555Z,59.34
2019-02-25T11:22:08.324Z,59.20
2019-02-25T11:24:36.485Z,59.02
2019-02-25T11:27:09.867Z,59.05
2019-02-25T11:29:42.518Z,58.91
2019-02-25T11:32:11.331Z,58.74
2019-02-25T11:34:43.005Z,58.90
2019-02-25T11:37:14.481Z,58.79
2019-02-25T11:39:52.481Z,58.77
2019-02-25T11:42:20.682Z,58.42
2019-02-25T11:45:04.365Z,58.23
2019-02-25T11:47:37.509Z,58.07
2019-02-25T11:50:14.229Z,58.03
2019-02-25T11:52:46.516Z,57.71
2019-02-25T11:55:17.929Z,57.76
2019-02-25T11:57:47.260Z,57.44
2019-02-25T12:00:19.029Z,57.54
2019-02-25T12:02:48.796Z,57.68
2019-02-25T12:05:20.197Z,57.62
2019-02-25T12:07:52.126Z,57.50
2019-02-25T12:10:22.211Z,57.54
2019-02-25T12:13:00.889Z,57.10
2019-02-25T12:15:30.694Z,56.89
2019-02-25T12:18:04.359Z,56.77
2019-02-25T12:20:34.174Z,56.83
2019-02-25T12:23:06.553Z,56.02
2019-02-25T12:25:46.856Z,56.03
2019-02-25T12:28:17.128Z,55.68
2019-02-25T12:30:48.321Z,55.15
2019-02-25T12:33:21.715Z,54.77
2019-02-25T12:35:50.890Z,54.54
2019-02-25T12:38:24.125Z,54.20
2019-02-25T12:40:54.511Z,53.95
2019-02-25T12:46:17.619Z,53.55
2019-02-25T12:48:50.097Z,53.65
2019-02-25T12:54:51.090Z,53.24
2019-02-25T13:03:43.233Z,52.63
2019-02-25T13:06:39.680Z,52.63
2019-02-25T13:12:17.980Z,52.44
2019-02-25T13:14:56.824Z,52.18
2019-02-25T13:20:17.740Z,51.98
2019-02-25T13:25:53.009Z,51.08
2019-02-25T13:28:39.046Z,50.23
2019-02-25T13:31:22.597Z,49.79
2019-02-25T13:34:07.730Z,49.78
2019-02-25T13:37:00.992Z,49.06
2019-02-25T13:39:52.692Z,49.30
2019-02-25T13:42:44.547Z,49.64
2019-02-25T13:45:16.127Z,49.69
2019-02-25T13:50:50.382Z,50.06
2019-02-25T13:53:25.956Z,49.71
2019-02-25T13:56:17.741Z,49.70
2019-02-25T14:01:48.875Z,49.95
2019-02-25T14:04:37.500Z,49.55
2019-02-25T14:10:22.413Z,50.07
2019-02-25T14:13:05.421Z,50.44
2019-02-25T14:15:47.014Z,50.25
2019-02-25T14:18:28.567Z,50.68
2019-02-25T14:33:36.887Z,50.54
2019-02-25T14:52:09.076Z,49.77
2019-02-25T14:55:07.130Z,50.18
